createdAt,value
2023-03-11T00:00:34.269Z,12.62
2023-03-11T00:03:23.371Z,12.63
2023-03-11T00:06:09.166Z,12.57
2023-03-11T00:08:55.068Z,12.63
2023-03-11T00:11:41.006Z,12.66
2023-03-11T00:14:26.989Z,12.63
2023-03-11T00:17:12.876Z,12.65
2023-03-11T00:19:58.839Z,12.69
2023-03-11T00:22:44.662Z,12.70
2023-03-11T00:25:32.717Z,12.70
2023-03-11T00:28:18.971Z,12.69
2023-03-11T00:31:05.295Z,12.71
2023-03-11T00:33:51.316Z,12.69
2023-03-11T00:36:37.099Z,12.71
2023-03-11T00:39:23.345Z,12.66
2023-03-11T00:42:09.180Z,12.68
2023-03-11T00:44:55.204Z,12.70
2023-03-11T00:47:41.428Z,12.70
2023-03-11T00:50:33.854Z,12.69
2023-03-11T00:53:20.056Z,12.68
2023-03-11T00:56:10.641Z,12.72
2023-03-11T00:58:58.122Z,12.68
2023-03-11T01:01:44.092Z,12.68
2023-03-11T01:04:30.195Z,12.68
2023-03-11T01:07:16.335Z,12.71
2023-03-11T01:10:02.714Z,12.71
2023-03-11T01:12:48.931Z,12.72
2023-03-11T01:15:37.118Z,12.72
2023-03-11T01:18:22.880Z,12.70
2023-03-11T01:21:08.737Z,12.66
2023-03-11T01:23:54.483Z,12.76
2023-03-11T01:26:40.256Z,12.73
2023-03-11T01:29:26.387Z,12.73
2023-03-11T01:32:12.358Z,12.71
2023-03-11T01:34:58.680Z,12.73
2023-03-11T01:37:46.256Z,12.65
2023-03-11T01:40:43.350Z,12.71
2023-03-11T01:43:41.892Z,12.68
2023-03-11T01:46:53.885Z,12.72
2023-03-11T01:49:46.819Z,12.73
2023-03-11T01:52:33.024Z,12.70
2023-03-11T01:55:19.411Z,12.73
2023-03-11T01:58:08.421Z,12.74
2023-03-11T02:00:56.356Z,12.69
2023-03-11T02:03:42.706Z,12.72
2023-03-11T02:06:28.712Z,12.66
2023-03-11T02:09:14.561Z,12.70
2023-03-11T02:12:00.728Z,12.76
2023-03-11T02:14:49.299Z,12.76
2023-03-11T02:17:37.186Z,12.72
2023-03-11T02:20:33.359Z,12.73
2023-03-11T02:23:21.957Z,12.74
2023-03-11T02:26:13.429Z,12.69
2023-03-11T02:29:00.868Z,12.69
2023-03-11T02:31:47.612Z,12.67
2023-03-11T02:34:36.456Z,12.67
2023-03-11T02:37:22.568Z,12.71
2023-03-11T02:40:24.640Z,12.68
2023-03-11T02:43:16.544Z,12.69
2023-03-11T02:46:03.130Z,12.65
2023-03-11T02:48:49.893Z,12.66
2023-03-11T02:51:36.759Z,12.61
2023-03-11T02:54:22.562Z,12.61
2023-03-11T02:57:08.433Z,12.64
2023-03-11T02:59:54.393Z,12.63
2023-03-11T03:02:40.529Z,12.60
2023-03-11T03:05:26.759Z,12.60
2023-03-11T03:08:12.524Z,12.61
2023-03-11T03:11:00.115Z,12.61
2023-03-11T03:13:45.828Z,12.55
2023-03-11T03:16:31.783Z,12.59
2023-03-11T03:19:17.584Z,12.55
2023-03-11T03:22:04.788Z,12.54
2023-03-11T03:24:52.947Z,12.52
2023-03-11T03:27:39.337Z,12.53
2023-03-11T03:30:28.423Z,12.42
2023-03-11T03:33:14.768Z,12.54
2023-03-11T03:36:01.099Z,12.48
2023-03-11T03:38:56.424Z,12.48
2023-03-11T03:41:44.213Z,12.48
2023-03-11T03:44:30.764Z,12.43
2023-03-11T03:47:19.210Z,12.42
2023-03-11T03:50:07.420Z,12.42
2023-03-11T03:52:54.505Z,12.41
2023-03-11T03:55:41.860Z,12.38
2023-03-11T03:58:28.856Z,12.32
2023-03-11T04:01:15.772Z,12.22
2023-03-11T04:04:01.495Z,12.19
2023-03-11T04:06:48.589Z,12.23
2023-03-11T04:09:39.615Z,12.21
2023-03-11T04:12:25.797Z,12.14
2023-03-11T04:15:12.279Z,12.05
2023-03-11T04:18:00.595Z,12.14
2023-03-11T04:20:47.241Z,12.09
2023-03-11T04:23:34.184Z,12.08
2023-03-11T04:26:20.267Z,12.07
2023-03-11T04:29:06.211Z,12.03
2023-03-11T04:31:58.166Z,11.99
2023-03-11T04:34:44.052Z,11.99
2023-03-11T04:37:33.805Z,11.92
2023-03-11T04:40:20.308Z,11.92
2023-03-11T04:43:07.018Z,11.86
2023-03-11T04:45:53.442Z,11.86
2023-03-11T04:48:39.952Z,11.84
2023-03-11T04:51:26.926Z,11.78
2023-03-11T04:54:13.161Z,11.84
2023-03-11T04:56:59.129Z,11.80
2023-03-11T04:59:45.455Z,11.73
2023-03-11T05:02:33.298Z,11.62
2023-03-11T05:05:21.306Z,11.69
2023-03-11T05:08:07.956Z,11.63
2023-03-11T05:10:54.260Z,11.60
2023-03-11T05:13:41.681Z,11.50
2023-03-11T05:16:27.914Z,11.53
2023-03-11T05:19:32.101Z,11.51
2023-03-11T05:22:21.603Z,11.46
2023-03-11T05:25:08.519Z,11.43
2023-03-11T05:27:56.595Z,11.40
2023-03-11T05:30:42.342Z,11.40
2023-03-11T05:33:34.781Z,11.44
2023-03-11T05:36:21.408Z,11.39
2023-03-11T05:39:07.333Z,11.36
2023-03-11T05:41:56.750Z,11.43
2023-03-11T05:44:43.048Z,11.44
2023-03-11T05:47:28.994Z,11.41
2023-03-11T05:50:16.360Z,11.40
2023-03-11T05:53:04.750Z,11.43
2023-03-11T05:56:00.831Z,11.42
2023-03-11T05:58:47.766Z,11.48
2023-03-11T06:01:34.122Z,11.41
2023-03-11T06:04:20.310Z,11.49
2023-03-11T06:07:06.456Z,11.50
2023-03-11T06:09:55.532Z,11.47
2023-03-11T06:12:42.148Z,11.47
2023-03-11T06:15:37.700Z,11.52
2023-03-11T06:18:26.639Z,11.49
2023-03-11T06:21:19.074Z,11.33
2023-03-11T06:24:05.710Z,11.55
2023-03-11T06:26:52.945Z,11.57
2023-03-11T06:29:41.527Z,11.63
2023-03-11T06:32:29.761Z,11.67
2023-03-11T06:35:15.704Z,11.70
2023-03-11T06:38:01.730Z,11.71
2023-03-11T06:40:47.901Z,11.68
2023-03-11T06:43:34.767Z,11.74
2023-03-11T06:46:23.207Z,11.77
2023-03-11T06:49:10.571Z,11.74
2023-03-11T06:51:58.796Z,11.80
2023-03-11T06:54:44.541Z,11.85
2023-03-11T06:57:31.622Z,11.85
2023-03-11T07:00:21.203Z,11.88
2023-03-11T07:03:12.449Z,11.92
2023-03-11T07:05:58.895Z,11.92
2023-03-11T07:08:47.048Z,11.95
2023-03-11T07:11:33.113Z,11.96
2023-03-11T07:14:26.119Z,12.03
2023-03-11T07:17:15.541Z,11.99
2023-03-11T07:20:08.996Z,12.01
2023-03-11T07:22:54.999Z,12.02
2023-03-11T07:25:46.601Z,12.02
2023-03-11T07:28:32.845Z,12.08
2023-03-11T07:31:21.126Z,12.08
2023-03-11T07:34:11.442Z,12.09
2023-03-11T07:36:57.394Z,12.19
2023-03-11T07:39:43.301Z,12.22
2023-03-11T07:42:28.998Z,12.21
2023-03-11T07:45:17.765Z,12.31
2023-03-11T07:48:04.164Z,12.36
2023-03-11T07:50:50.349Z,12.38
2023-03-11T07:53:36.356Z,12.40
2023-03-11T07:56:27.457Z,12.38
2023-03-11T07:59:15.939Z,12.44
2023-03-11T08:02:04.120Z,12.44
2023-03-11T08:04:49.920Z,12.46
2023-03-11T08:07:36.196Z,12.51
2023-03-11T08:10:22.050Z,12.55
2023-03-11T08:13:08.429Z,12.64
2023-03-11T08:15:54.668Z,12.69
2023-03-11T08:18:42.036Z,12.79
2023-03-11T08:21:34.930Z,12.86
2023-03-11T08:24:20.633Z,12.98
2023-03-11T08:27:06.584Z,13.09
2023-03-11T08:29:52.454Z,13.18
2023-03-11T08:32:38.791Z,13.32
2023-03-11T08:35:26.217Z,13.42
2023-03-11T08:38:12.405Z,13.60
2023-03-11T08:40:58.330Z,13.65
2023-03-11T08:43:44.685Z,13.76
2023-03-11T08:46:33.572Z,13.85
2023-03-11T08:49:29.288Z,13.96
2023-03-11T08:52:15.094Z,14.04
2023-03-11T08:55:01.038Z,14.14
2023-03-11T08:57:46.773Z,14.23
2023-03-11T09:00:32.868Z,14.32
2023-03-11T09:03:18.659Z,14.47
2023-03-11T09:06:07.156Z,14.65
2023-03-11T09:08:53.007Z,14.76
2023-03-11T09:11:39.324Z,14.88
2023-03-11T09:14:25.176Z,15.06
2023-03-11T09:17:12.186Z,15.19
2023-03-11T09:19:58.043Z,15.24
2023-03-11T09:22:44.026Z,15.31
2023-03-11T09:25:30.035Z,15.30
2023-03-11T09:28:16.054Z,15.32
2023-03-11T09:31:01.872Z,15.33
2023-03-11T09:33:48.074Z,15.33
2023-03-11T09:36:34.097Z,15.39
2023-03-11T09:39:21.247Z,15.31
2023-03-11T09:42:15.525Z,15.37
2023-03-11T09:45:17.809Z,15.37
2023-03-11T09:48:07.744Z,15.47
2023-03-11T09:51:18.118Z,15.34
2023-03-11T09:54:05.875Z,15.43
2023-03-11T09:56:51.885Z,15.36
2023-03-11T09:59:40.007Z,15.14
2023-03-11T10:02:27.741Z,15.01
2023-03-11T10:05:22.229Z,14.83
2023-03-11T10:08:28.316Z,14.97
2023-03-11T10:11:19.602Z,15.18
2023-03-11T10:14:14.489Z,15.20
2023-03-11T10:17:37.533Z,15.22
2023-03-11T10:20:29.641Z,15.11
2023-03-11T10:23:26.457Z,15.26
2023-03-11T10:26:15.611Z,15.40
2023-03-11T10:29:18.339Z,15.40
2023-03-11T10:32:19.394Z,15.45
2023-03-11T10:35:21.195Z,15.44
2023-03-11T10:38:26.698Z,15.34
2023-03-11T10:41:42.848Z,15.56
2023-03-11T10:44:31.414Z,15.68
2023-03-11T10:47:25.588Z,15.67
2023-03-11T10:50:21.105Z,15.75
2023-03-11T10:53:15.374Z,15.76
2023-03-11T10:56:01.226Z,15.75
2023-03-11T10:58:50.458Z,15.73
2023-03-11T11:01:36.835Z,15.75
2023-03-11T11:04:36.312Z,15.75
2023-03-11T11:07:29.709Z,15.75
2023-03-11T11:10:19.097Z,15.82
2023-03-11T11:13:08.221Z,15.85
2023-03-11T11:16:20.972Z,15.79
2023-03-11T11:19:15.283Z,15.80
2023-03-11T11:22:04.518Z,15.75
2023-03-11T11:24:52.231Z,15.79
2023-03-11T11:27:37.890Z,15.81
2023-03-11T11:30:24.739Z,15.60
2023-03-11T11:33:28.897Z,15.59
2023-03-11T11:36:16.438Z,15.77
2023-03-11T11:39:05.111Z,15.29
2023-03-11T11:41:51.136Z,15.61
2023-03-11T11:44:37.151Z,15.72
2023-03-11T11:47:33.857Z,15.47
2023-03-11T11:50:26.716Z,15.64
2023-03-11T11:53:33.043Z,15.52
2023-03-11T11:56:18.901Z,15.91
2023-03-11T11:59:13.692Z,14.69
2023-03-11T12:01:59.350Z,14.97
2023-03-11T12:04:56.164Z,15.62
2023-03-11T12:08:15.980Z,15.10
2023-03-11T12:11:05.101Z,15.41
2023-03-11T12:14:00.287Z,15.48
2023-03-11T12:16:52.396Z,15.86
2023-03-11T12:19:58.157Z,15.85
2023-03-11T12:23:02.429Z,15.78
2023-03-11T12:26:19.175Z,16.11
2023-03-11T12:29:29.008Z,16.26
2023-03-11T12:32:35.189Z,16.16
2023-03-11T12:35:27.828Z,16.01
2023-03-11T12:38:19.108Z,16.17
2023-03-11T12:41:14.113Z,16.31
2023-03-11T12:44:02.356Z,16.27
2023-03-11T12:46:54.728Z,16.38
2023-03-11T12:49:45.563Z,16.18
2023-03-11T12:52:53.101Z,15.89
2023-03-11T12:55:40.162Z,15.45
2023-03-11T12:58:47.589Z,16.02
2023-03-11T13:02:16.605Z,15.97
2023-03-11T13:05:33.181Z,15.93
2023-03-11T13:08:34.215Z,15.94
2023-03-11T13:11:32.460Z,16.00
2023-03-11T13:14:31.320Z,15.96
2023-03-11T13:17:25.722Z,15.83
2023-03-11T13:20:42.873Z,15.66
2023-03-11T13:23:40.527Z,15.54
2023-03-11T13:26:34.517Z,15.48
2023-03-11T13:29:38.937Z,15.47
2023-03-11T13:32:27.888Z,15.39
2023-03-11T13:35:32.790Z,15.33
2023-03-11T13:38:40.797Z,15.24
2023-03-11T13:41:32.130Z,15.06
2023-03-11T13:44:24.285Z,15.10
2023-03-11T13:47:15.082Z,14.92
2023-03-11T13:50:27.257Z,14.89
2023-03-11T13:53:36.750Z,14.62
2023-03-11T13:56:26.827Z,14.51
2023-03-11T13:59:27.436Z,14.43
2023-03-11T14:02:21.845Z,14.30
2023-03-11T14:05:15.568Z,14.20
2023-03-11T14:08:20.607Z,13.92
2023-03-11T14:11:12.602Z,13.92
2023-03-11T14:13:58.363Z,13.75
2023-03-11T14:16:45.188Z,13.64
2023-03-11T14:19:31.357Z,13.40
2023-03-11T14:22:17.411Z,13.14
2023-03-11T14:25:08.628Z,12.85
2023-03-11T14:27:57.582Z,12.72
2023-03-11T14:30:55.574Z,12.23
2023-03-11T14:33:41.608Z,12.23
2023-03-11T14:36:27.393Z,12.10
2023-03-11T14:39:40.026Z,11.72
2023-03-11T14:42:35.543Z,11.53
2023-03-11T14:45:24.201Z,11.51
2023-03-11T14:48:23.886Z,11.28
2023-03-11T14:51:31.677Z,10.99
2023-03-11T14:54:24.551Z,10.89
2023-03-11T14:57:44.184Z,10.71
2023-03-11T15:00:50.835Z,10.38
2023-03-11T15:03:40.325Z,10.37
2023-03-11T15:06:28.635Z,10.04
2023-03-11T15:09:23.612Z,10.01
2023-03-11T15:12:36.025Z,9.82
2023-03-11T15:15:28.851Z,9.79
2023-03-11T15:18:24.678Z,9.79
2023-03-11T15:21:15.525Z,9.81
2023-03-11T15:24:05.304Z,9.75
2023-03-11T15:26:55.592Z,9.73
2023-03-11T15:29:50.902Z,9.62
2023-03-11T15:32:44.209Z,9.48
2023-03-11T15:35:31.150Z,9.49
2023-03-11T15:38:25.531Z,9.51
2023-03-11T15:41:11.564Z,9.47
2023-03-11T15:44:02.088Z,9.38
2023-03-11T15:46:48.269Z,9.41
2023-03-11T15:49:44.036Z,9.35
2023-03-11T15:52:29.910Z,9.26
2023-03-11T15:55:16.310Z,9.35
2023-03-11T15:58:08.069Z,9.31
2023-03-11T16:00:56.606Z,9.26
2023-03-11T16:03:42.753Z,9.21
2023-03-11T16:06:28.663Z,9.26
2023-03-11T16:09:15.856Z,9.22
2023-03-11T16:12:02.752Z,9.10
2023-03-11T16:14:49.982Z,9.22
2023-03-11T16:17:48.878Z,9.12
2023-03-11T16:20:48.407Z,9.09
2023-03-11T16:23:50.313Z,9.23
2023-03-11T16:26:36.973Z,9.14
2023-03-11T16:29:23.816Z,9.07
2023-03-11T16:32:10.644Z,9.19
2023-03-11T16:34:56.478Z,9.08
2023-03-11T16:37:43.483Z,9.07
2023-03-11T16:40:29.595Z,9.20
2023-03-11T16:43:15.815Z,9.18
2023-03-11T16:46:01.826Z,9.05
2023-03-11T16:48:47.899Z,9.13
2023-03-11T16:51:34.504Z,9.08
2023-03-11T16:54:20.331Z,9.01
2023-03-11T16:57:06.330Z,8.86
2023-03-11T16:59:52.571Z,8.85
2023-03-11T17:02:38.839Z,8.88
2023-03-11T17:05:24.899Z,8.86
2023-03-11T17:08:11.506Z,8.83
2023-03-11T17:10:58.147Z,8.85
2023-03-11T17:13:44.100Z,8.81
2023-03-11T17:16:30.071Z,8.74
2023-03-11T17:19:16.074Z,8.73
2023-03-11T17:22:02.334Z,8.75
2023-03-11T17:24:48.279Z,8.70
2023-03-11T17:27:34.178Z,8.64
2023-03-11T17:30:35.671Z,8.60
2023-03-11T17:33:22.623Z,8.56
2023-03-11T17:36:09.991Z,8.44
2023-03-11T17:38:56.127Z,8.42
2023-03-11T17:41:41.924Z,8.26
2023-03-11T17:44:30.082Z,8.31
2023-03-11T17:47:20.143Z,8.16
2023-03-11T17:50:06.882Z,8.20
2023-03-11T17:52:53.647Z,8.13
2023-03-11T17:55:40.649Z,8.05
2023-03-11T17:58:26.781Z,8.05
2023-03-11T18:01:15.351Z,8.06
2023-03-11T18:04:01.914Z,7.96
2023-03-11T18:06:48.220Z,8.02
2023-03-11T18:09:34.044Z,7.93
2023-03-11T18:12:20.783Z,7.92
2023-03-11T18:15:11.992Z,7.88
2023-03-11T18:17:58.292Z,7.90
2023-03-11T18:20:44.335Z,7.82
2023-03-11T18:23:33.058Z,7.85
2023-03-11T18:26:19.882Z,7.80
2023-03-11T18:29:06.052Z,7.77
2023-03-11T18:31:51.892Z,7.66
2023-03-11T18:34:37.910Z,7.42
2023-03-11T18:37:25.048Z,7.56
2023-03-11T18:40:12.023Z,7.66
2023-03-11T18:42:58.513Z,7.53
2023-03-11T18:45:44.380Z,7.55
2023-03-11T18:48:30.347Z,7.48
2023-03-11T18:51:16.595Z,7.51
2023-03-11T18:54:02.947Z,7.44
2023-03-11T18:56:50.288Z,7.46
2023-03-11T18:59:36.586Z,7.47
2023-03-11T19:02:22.757Z,7.42
2023-03-11T19:05:08.884Z,7.48
2023-03-11T19:07:54.999Z,7.43
2023-03-11T19:10:42.692Z,7.47
2023-03-11T19:13:40.722Z,7.36
2023-03-11T19:16:32.121Z,7.34
2023-03-11T19:19:18.801Z,7.30
2023-03-11T19:22:05.693Z,7.23
2023-03-11T19:24:53.777Z,7.33
2023-03-11T19:27:40.284Z,7.36
2023-03-11T19:30:26.830Z,7.40
2023-03-11T19:33:12.850Z,7.35
2023-03-11T19:36:00.740Z,7.34
2023-03-11T19:38:47.762Z,7.37
2023-03-11T19:41:34.031Z,7.39
2023-03-11T19:44:20.033Z,7.40
2023-03-11T19:47:08.778Z,7.44
2023-03-11T19:49:55.168Z,7.42
2023-03-11T19:52:41.008Z,7.26
2023-03-11T19:55:27.302Z,7.46
2023-03-11T19:58:14.409Z,7.44
2023-03-11T20:01:00.820Z,7.49
2023-03-11T20:03:47.164Z,7.60
2023-03-11T20:06:33.276Z,7.49
2023-03-11T20:09:20.481Z,7.50
2023-03-11T20:12:06.582Z,7.50
2023-03-11T20:14:52.870Z,7.53
2023-03-11T20:17:38.782Z,7.60
2023-03-11T20:20:24.826Z,7.62
2023-03-11T20:23:11.642Z,7.63
2023-03-11T20:25:57.500Z,7.60
2023-03-11T20:28:44.012Z,7.64
2023-03-11T20:31:30.438Z,7.49
2023-03-11T20:34:16.649Z,7.56
2023-03-11T20:37:03.016Z,7.63
2023-03-11T20:39:48.870Z,7.53
2023-03-11T20:42:35.732Z,7.42
2023-03-11T20:45:22.048Z,7.62
2023-03-11T20:48:08.652Z,7.52
2023-03-11T20:50:54.399Z,7.63
2023-03-11T20:53:40.595Z,7.55
2023-03-11T20:56:26.880Z,7.68
2023-03-11T20:59:14.263Z,7.68
2023-03-11T21:02:00.379Z,7.62
2023-03-11T21:04:47.951Z,7.57
2023-03-11T21:07:34.332Z,7.51
2023-03-11T21:10:20.561Z,7.38
2023-03-11T21:13:07.265Z,7.48
2023-03-11T21:15:56.397Z,7.48
2023-03-11T21:18:44.324Z,7.55
2023-03-11T21:21:30.301Z,7.22
2023-03-11T21:24:16.488Z,7.55
2023-03-11T21:27:02.820Z,7.50
2023-03-11T21:29:49.322Z,7.51
2023-03-11T21:32:35.673Z,7.56
2023-03-11T21:35:21.968Z,7.57
2023-03-11T21:38:07.764Z,7.47
2023-03-11T21:40:54.625Z,7.52
2023-03-11T21:43:41.892Z,7.47
2023-03-11T21:46:30.058Z,7.58
2023-03-11T21:49:16.049Z,7.52
2023-03-11T21:52:02.647Z,7.56
2023-03-11T21:54:48.650Z,7.56
2023-03-11T21:57:34.584Z,7.61
2023-03-11T22:00:21.359Z,7.53
2023-03-11T22:03:07.266Z,7.28
2023-03-11T22:06:00.497Z,7.37
2023-03-11T22:08:46.813Z,7.27
2023-03-11T22:11:33.175Z,7.43
2023-03-11T22:14:19.119Z,7.31
2023-03-11T22:17:05.038Z,7.38
2023-03-11T22:19:50.881Z,7.47
2023-03-11T22:22:36.884Z,7.36
2023-03-11T22:25:22.894Z,7.46
2023-03-11T22:28:12.158Z,7.35
2023-03-11T22:30:57.963Z,7.30
2023-03-11T22:33:43.974Z,7.44
2023-03-11T22:36:29.865Z,7.39
2023-03-11T22:39:15.554Z,7.41
2023-03-11T22:42:02.176Z,7.42
2023-03-11T22:44:48.356Z,7.36
2023-03-11T22:47:34.140Z,7.51
2023-03-11T22:50:20.158Z,7.40
2023-03-11T22:53:06.070Z,7.49
2023-03-11T22:55:52.388Z,7.44
2023-03-11T22:58:38.687Z,7.47
2023-03-11T23:01:24.770Z,7.37
2023-03-11T23:04:10.986Z,7.46
2023-03-11T23:06:56.696Z,7.41
2023-03-11T23:09:43.081Z,7.42
2023-03-11T23:12:28.907Z,7.34
2023-03-11T23:15:17.685Z,7.41
2023-03-11T23:18:03.468Z,7.35
2023-03-11T23:20:49.515Z,7.36
2023-03-11T23:23:35.276Z,7.26
2023-03-11T23:26:22.056Z,7.37
2023-03-11T23:29:07.893Z,7.27
2023-03-11T23:31:53.735Z,7.36
2023-03-11T23:34:39.538Z,7.26
2023-03-11T23:37:25.335Z,7.32
2023-03-11T23:40:11.501Z,7.35
2023-03-11T23:42:57.422Z,7.25
2023-03-11T23:45:43.245Z,7.23
2023-03-11T23:48:29.221Z,7.20
2023-03-11T23:51:15.197Z,7.18
2023-03-11T23:54:01.017Z,7.06
2023-03-11T23:56:46.915Z,7.13
2023-03-11T23:59:32.877Z,7.13
